sensor_id;sensor_type;location;lat;lon;timestamp;temperature;humidity
41592;DHT22;28026;48.562;14.440;2023-06-04T00:01:35;11.80;98.10
41592;DHT22;28026;48.562;14.440;2023-06-04T00:04:05;11.60;98.20
41592;DHT22;28026;48.562;14.440;2023-06-04T00:06:36;11.40;98.90
41592;DHT22;28026;48.562;14.440;2023-06-04T00:09:07;11.30;99.00
41592;DHT22;28026;48.562;14.440;2023-06-04T00:11:38;11.40;98.60
41592;DHT22;28026;48.562;14.440;2023-06-04T00:14:09;11.30;98.70
41592;DHT22;28026;48.562;14.440;2023-06-04T00:16:40;11.30;99.00
41592;DHT22;28026;48.562;14.440;2023-06-04T00:19:12;11.20;99.20
41592;DHT22;28026;48.562;14.440;2023-06-04T00:21:43;11.30;99.10
41592;DHT22;28026;48.562;14.440;2023-06-04T00:24:14;11.30;98.90
41592;DHT22;28026;48.562;14.440;2023-06-04T00:26:45;11.30;99.10
41592;DHT22;28026;48.562;14.440;2023-06-04T00:29:16;11.30;99.10
41592;DHT22;28026;48.562;14.440;2023-06-04T00:31:47;11.20;99.30
41592;DHT22;28026;48.562;14.440;2023-06-04T00:34:18;11.20;99.30
41592;DHT22;28026;48.562;14.440;2023-06-04T00:36:49;11.20;99.40
41592;DHT22;28026;48.562;14.440;2023-06-04T00:39:20;11.20;99.40
41592;DHT22;28026;48.562;14.440;2023-06-04T00:41:50;11.10;99.60
41592;DHT22;28026;48.562;14.440;2023-06-04T00:44:21;11.20;99.50
41592;DHT22;28026;48.562;14.440;2023-06-04T00:46:55;11.20;99.50
41592;DHT22;28026;48.562;14.440;2023-06-04T00:49:26;11.10;99.60
41592;DHT22;28026;48.562;14.440;2023-06-04T00:51:57;11.10;99.90
41592;DHT22;28026;48.562;14.440;2023-06-04T00:54:28;11.00;99.80
41592;DHT22;28026;48.562;14.440;2023-06-04T00:56:59;11.00;99.70
41592;DHT22;28026;48.562;14.440;2023-06-04T00:59:32;11.00;99.80
41592;DHT22;28026;48.562;14.440;2023-06-04T01:02:14;11.00;99.60
41592;DHT22;28026;48.562;14.440;2023-06-04T01:07:47;10.90;99.90
41592;DHT22;28026;48.562;14.440;2023-06-04T01:10:22;10.90;99.90
41592;DHT22;28026;48.562;14.440;2023-06-04T01:12:53;10.90;99.90
41592;DHT22;28026;48.562;14.440;2023-06-04T01:15:24;10.90;99.90
41592;DHT22;28026;48.562;14.440;2023-06-04T01:17:59;11.00;99.90
41592;DHT22;28026;48.562;14.440;2023-06-04T01:20:36;10.70;99.90
41592;DHT22;28026;48.562;14.440;2023-06-04T01:26:31;10.80;99.90
41592;DHT22;28026;48.562;14.440;2023-06-04T01:29:02;10.80;99.90
41592;DHT22;28026;48.562;14.440;2023-06-04T01:31:33;10.80;99.90
41592;DHT22;28026;48.562;14.440;2023-06-04T01:34:07;10.80;99.90
41592;DHT22;28026;48.562;14.440;2023-06-04T01:36:38;10.80;99.90
41592;DHT22;28026;48.562;14.440;2023-06-04T01:39:09;10.80;99.90
41592;DHT22;28026;48.562;14.440;2023-06-04T01:41:40;10.70;99.90
41592;DHT22;28026;48.562;14.440;2023-06-04T01:44:11;10.80;99.90
41592;DHT22;28026;48.562;14.440;2023-06-04T01:46:42;10.80;99.90
41592;DHT22;28026;48.562;14.440;2023-06-04T01:49:13;10.80;99.90
41592;DHT22;28026;48.562;14.440;2023-06-04T01:51:43;10.60;99.90
41592;DHT22;28026;48.562;14.440;2023-06-04T01:54:14;10.60;99.90
41592;DHT22;28026;48.562;14.440;2023-06-04T01:56:46;10.70;99.90
41592;DHT22;28026;48.562;14.440;2023-06-04T01:59:18;10.60;99.90
41592;DHT22;28026;48.562;14.440;2023-06-04T02:01:49;10.60;99.90
41592;DHT22;28026;48.562;14.440;2023-06-04T02:04:20;10.70;99.90
41592;DHT22;28026;48.562;14.440;2023-06-04T02:06:51;10.60;99.90
41592;DHT22;28026;48.562;14.440;2023-06-04T02:09:22;10.60;99.90
41592;DHT22;28026;48.562;14.440;2023-06-04T02:11:53;10.50;99.90
41592;DHT22;28026;48.562;14.440;2023-06-04T02:14:24;10.50;99.90
41592;DHT22;28026;48.562;14.440;2023-06-04T02:16:55;10.40;99.90
41592;DHT22;28026;48.562;14.440;2023-06-04T02:19:28;10.30;99.90
41592;DHT22;28026;48.562;14.440;2023-06-04T02:21:59;10.30;99.90
41592;DHT22;28026;48.562;14.440;2023-06-04T02:24:30;10.40;99.90
41592;DHT22;28026;48.562;14.440;2023-06-04T02:27:00;10.30;99.90
41592;DHT22;28026;48.562;14.440;2023-06-04T02:29:31;10.30;99.90
41592;DHT22;28026;48.562;14.440;2023-06-04T02:32:05;10.20;99.90
41592;DHT22;28026;48.562;14.440;2023-06-04T02:34:38;10.20;99.90
41592;DHT22;28026;48.562;14.440;2023-06-04T02:37:08;10.10;99.90
41592;DHT22;28026;48.562;14.440;2023-06-04T02:39:39;10.00;99.90
41592;DHT22;28026;48.562;14.440;2023-06-04T02:42:10;9.90;99.90
41592;DHT22;28026;48.562;14.440;2023-06-04T02:44:41;10.00;99.90
41592;DHT22;28026;48.562;14.440;2023-06-04T02:47:12;10.10;99.90
41592;DHT22;28026;48.562;14.440;2023-06-04T02:49:43;10.00;99.90
41592;DHT22;28026;48.562;14.440;2023-06-04T02:52:13;10.00;99.90
41592;DHT22;28026;48.562;14.440;2023-06-04T02:54:44;10.10;99.90
41592;DHT22;28026;48.562;14.440;2023-06-04T02:57:15;10.00;99.90
41592;DHT22;28026;48.562;14.440;2023-06-04T02:59:46;10.00;99.90
41592;DHT22;28026;48.562;14.440;2023-06-04T03:02:17;9.90;99.90
41592;DHT22;28026;48.562;14.440;2023-06-04T03:04:47;9.80;99.90
41592;DHT22;28026;48.562;14.440;2023-06-04T03:07:21;9.70;99.90
41592;DHT22;28026;48.562;14.440;2023-06-04T03:09:53;9.70;99.90
41592;DHT22;28026;48.562;14.440;2023-06-04T03:12:23;9.90;99.90
41592;DHT22;28026;48.562;14.440;2023-06-04T03:14:54;9.90;99.90
41592;DHT22;28026;48.562;14.440;2023-06-04T03:17:26;9.80;99.90
41592;DHT22;28026;48.562;14.440;2023-06-04T03:19:57;9.70;99.90
41592;DHT22;28026;48.562;14.440;2023-06-04T03:22:28;9.90;99.90
41592;DHT22;28026;48.562;14.440;2023-06-04T03:24:59;9.70;99.90
41592;DHT22;28026;48.562;14.440;2023-06-04T03:27:31;9.70;99.90
41592;DHT22;28026;48.562;14.440;2023-06-04T03:30:03;9.70;99.90
41592;DHT22;28026;48.562;14.440;2023-06-04T03:32:35;9.70;99.90
41592;DHT22;28026;48.562;14.440;2023-06-04T03:35:06;9.90;99.90
41592;DHT22;28026;48.562;14.440;2023-06-04T03:37:38;9.70;99.90
41592;DHT22;28026;48.562;14.440;2023-06-04T03:40:09;9.60;99.90
41592;DHT22;28026;48.562;14.440;2023-06-04T03:42:41;9.60;99.90
41592;DHT22;28026;48.562;14.440;2023-06-04T03:45:12;9.80;99.90
41592;DHT22;28026;48.562;14.440;2023-06-04T03:47:43;10.00;99.90
41592;DHT22;28026;48.562;14.440;2023-06-04T03:50:14;10.10;99.90
41592;DHT22;28026;48.562;14.440;2023-06-04T03:52:45;10.10;99.90
41592;DHT22;28026;48.562;14.440;2023-06-04T03:55:15;10.20;99.90
41592;DHT22;28026;48.562;14.440;2023-06-04T03:57:46;10.10;99.90
41592;DHT22;28026;48.562;14.440;2023-06-04T04:00:18;10.20;99.90
41592;DHT22;28026;48.562;14.440;2023-06-04T04:02:49;10.20;99.90
41592;DHT22;28026;48.562;14.440;2023-06-04T04:05:20;10.10;99.90
41592;DHT22;28026;48.562;14.440;2023-06-04T04:07:51;10.10;99.90
41592;DHT22;28026;48.562;14.440;2023-06-04T04:10:22;10.10;99.90
41592;DHT22;28026;48.562;14.440;2023-06-04T04:12:53;10.10;99.90
41592;DHT22;28026;48.562;14.440;2023-06-04T04:15:27;10.30;99.90
41592;DHT22;28026;48.562;14.440;2023-06-04T04:17:58;10.30;99.90
41592;DHT22;28026;48.562;14.440;2023-06-04T04:20:29;10.50;99.90
41592;DHT22;28026;48.562;14.440;2023-06-04T04:23:00;10.60;99.90
41592;DHT22;28026;48.562;14.440;2023-06-04T04:25:31;10.60;99.90
41592;DHT22;28026;48.562;14.440;2023-06-04T04:28:03;10.70;99.90
41592;DHT22;28026;48.562;14.440;2023-06-04T04:30:37;10.80;99.90
41592;DHT22;28026;48.562;14.440;2023-06-04T04:33:08;10.70;99.90
41592;DHT22;28026;48.562;14.440;2023-06-04T04:35:38;10.70;99.90
41592;DHT22;28026;48.562;14.440;2023-06-04T04:38:10;10.80;99.90
41592;DHT22;28026;48.562;14.440;2023-06-04T04:40:41;10.90;99.90
41592;DHT22;28026;48.562;14.440;2023-06-04T04:43:12;10.80;99.90
41592;DHT22;28026;48.562;14.440;2023-06-04T04:45:43;10.80;99.90
41592;DHT22;28026;48.562;14.440;2023-06-04T04:48:14;11.00;99.90
41592;DHT22;28026;48.562;14.440;2023-06-04T04:50:45;11.10;99.90
41592;DHT22;28026;48.562;14.440;2023-06-04T04:53:16;11.10;99.90
41592;DHT22;28026;48.562;14.440;2023-06-04T04:55:47;10.90;99.90
41592;DHT22;28026;48.562;14.440;2023-06-04T04:58:18;11.10;99.90
41592;DHT22;28026;48.562;14.440;2023-06-04T05:00:49;11.20;99.90
41592;DHT22;28026;48.562;14.440;2023-06-04T05:03:20;11.40;99.90
41592;DHT22;28026;48.562;14.440;2023-06-04T05:05:51;11.40;99.90
41592;DHT22;28026;48.562;14.440;2023-06-04T05:08:22;11.50;99.90
41592;DHT22;28026;48.562;14.440;2023-06-04T05:10:53;11.70;99.90
41592;DHT22;28026;48.562;14.440;2023-06-04T05:13:23;12.10;99.90
41592;DHT22;28026;48.562;14.440;2023-06-04T05:15:55;12.50;99.90
41592;DHT22;28026;48.562;14.440;2023-06-04T05:18:27;12.70;99.90
41592;DHT22;28026;48.562;14.440;2023-06-04T05:21:00;12.60;99.90
41592;DHT22;28026;48.562;14.440;2023-06-04T05:23:33;12.00;99.90
41592;DHT22;28026;48.562;14.440;2023-06-04T05:26:07;11.50;99.90
41592;DHT22;28026;48.562;14.440;2023-06-04T05:28:38;11.50;99.90
41592;DHT22;28026;48.562;14.440;2023-06-04T05:31:13;11.80;99.90
41592;DHT22;28026;48.562;14.440;2023-06-04T05:33:46;12.20;99.90
41592;DHT22;28026;48.562;14.440;2023-06-04T05:36:19;12.50;99.90
41592;DHT22;28026;48.562;14.440;2023-06-04T05:38:50;12.80;99.90
41592;DHT22;28026;48.562;14.440;2023-06-04T05:41:27;13.30;99.90
41592;DHT22;28026;48.562;14.440;2023-06-04T05:43:58;13.60;99.90
41592;DHT22;28026;48.562;14.440;2023-06-04T05:46:29;13.90;99.90
41592;DHT22;28026;48.562;14.440;2023-06-04T05:49:00;14.40;99.90
41592;DHT22;28026;48.562;14.440;2023-06-04T05:51:30;14.60;99.90
41592;DHT22;28026;48.562;14.440;2023-06-04T05:54:01;14.50;99.90
41592;DHT22;28026;48.562;14.440;2023-06-04T05:56:33;14.60;99.90
41592;DHT22;28026;48.562;14.440;2023-06-04T05:59:04;14.70;99.90
41592;DHT22;28026;48.562;14.440;2023-06-04T06:01:35;15.00;99.90
41592;DHT22;28026;48.562;14.440;2023-06-04T06:04:06;14.90;99.90
41592;DHT22;28026;48.562;14.440;2023-06-04T06:06:37;14.60;99.90
41592;DHT22;28026;48.562;14.440;2023-06-04T06:09:08;14.20;99.90
41592;DHT22;28026;48.562;14.440;2023-06-04T06:11:39;14.30;99.90
41592;DHT22;28026;48.562;14.440;2023-06-04T06:14:10;14.20;99.90
41592;DHT22;28026;48.562;14.440;2023-06-04T06:16:41;14.50;99.90
41592;DHT22;28026;48.562;14.440;2023-06-04T06:19:12;14.50;99.90
41592;DHT22;28026;48.562;14.440;2023-06-04T06:21:43;14.80;99.90
41592;DHT22;28026;48.562;14.440;2023-06-04T06:24:14;15.10;99.90
41592;DHT22;28026;48.562;14.440;2023-06-04T06:26:45;15.20;99.90
41592;DHT22;28026;48.562;14.440;2023-06-04T06:29:16;15.40;99.90
41592;DHT22;28026;48.562;14.440;2023-06-04T06:31:47;15.80;99.90
41592;DHT22;28026;48.562;14.440;2023-06-04T06:34:17;16.30;99.90
41592;DHT22;28026;48.562;14.440;2023-06-04T06:36:48;16.30;99.90
41592;DHT22;28026;48.562;14.440;2023-06-04T06:39:20;16.20;99.90
41592;DHT22;28026;48.562;14.440;2023-06-04T06:41:51;16.40;99.90
41592;DHT22;28026;48.562;14.440;2023-06-04T06:44:22;16.50;99.90
41592;DHT22;28026;48.562;14.440;2023-06-04T06:46:53;16.50;99.90
41592;DHT22;28026;48.562;14.440;2023-06-04T06:49:24;16.60;99.90
41592;DHT22;28026;48.562;14.440;2023-06-04T06:51:55;17.00;99.90
41592;DHT22;28026;48.562;14.440;2023-06-04T06:54:25;17.30;99.90
41592;DHT22;28026;48.562;14.440;2023-06-04T06:56:56;17.40;99.00
41592;DHT22;28026;48.562;14.440;2023-06-04T06:59:28;17.60;99.60
41592;DHT22;28026;48.562;14.440;2023-06-04T07:01:58;17.50;99.40
41592;DHT22;28026;48.562;14.440;2023-06-04T07:04:29;17.60;99.90
41592;DHT22;28026;48.562;14.440;2023-06-04T07:07:00;17.90;99.90
41592;DHT22;28026;48.562;14.440;2023-06-04T07:09:31;17.90;99.90
41592;DHT22;28026;48.562;14.440;2023-06-04T07:12:02;17.70;99.90
41592;DHT22;28026;48.562;14.440;2023-06-04T07:14:33;17.90;99.90
41592;DHT22;28026;48.562;14.440;2023-06-04T07:17:04;18.10;98.70
41592;DHT22;28026;48.562;14.440;2023-06-04T07:19:35;18.30;99.50
41592;DHT22;28026;48.562;14.440;2023-06-04T07:22:06;18.40;99.90
41592;DHT22;28026;48.562;14.440;2023-06-04T07:24:36;18.20;99.40
41592;DHT22;28026;48.562;14.440;2023-06-04T07:27:12;18.30;99.10
41592;DHT22;28026;48.562;14.440;2023-06-04T07:29:44;18.60;99.40
41592;DHT22;28026;48.562;14.440;2023-06-04T07:32:15;18.90;98.90
41592;DHT22;28026;48.562;14.440;2023-06-04T07:34:46;19.30;98.10
41592;DHT22;28026;48.562;14.440;2023-06-04T07:37:17;19.70;98.20
41592;DHT22;28026;48.562;14.440;2023-06-04T07:39:48;19.40;98.00
41592;DHT22;28026;48.562;14.440;2023-06-04T07:42:19;19.50;99.60
41592;DHT22;28026;48.562;14.440;2023-06-04T07:44:50;19.70;98.90
41592;DHT22;28026;48.562;14.440;2023-06-04T07:47:22;19.80;98.20
41592;DHT22;28026;48.562;14.440;2023-06-04T07:49:53;19.90;98.40
41592;DHT22;28026;48.562;14.440;2023-06-04T07:52:24;19.90;98.00
41592;DHT22;28026;48.562;14.440;2023-06-04T07:54:54;20.20;98.90
41592;DHT22;28026;48.562;14.440;2023-06-04T07:57:26;19.70;97.60
41592;DHT22;28026;48.562;14.440;2023-06-04T07:59:56;19.40;98.60
41592;DHT22;28026;48.562;14.440;2023-06-04T08:02:28;19.70;98.30
41592;DHT22;28026;48.562;14.440;2023-06-04T08:04:59;19.80;98.50
41592;DHT22;28026;48.562;14.440;2023-06-04T08:07:32;19.70;98.00
41592;DHT22;28026;48.562;14.440;2023-06-04T08:10:03;19.70;99.10
41592;DHT22;28026;48.562;14.440;2023-06-04T08:12:35;19.90;98.70
41592;DHT22;28026;48.562;14.440;2023-06-04T08:15:07;19.10;98.50
41592;DHT22;28026;48.562;14.440;2023-06-04T08:17:39;19.20;99.80
41592;DHT22;28026;48.562;14.440;2023-06-04T08:20:10;19.70;99.50
41592;DHT22;28026;48.562;14.440;2023-06-04T08:22:41;20.20;98.60
41592;DHT22;28026;48.562;14.440;2023-06-04T08:25:12;19.90;98.70
41592;DHT22;28026;48.562;14.440;2023-06-04T08:27:44;19.60;99.00
41592;DHT22;28026;48.562;14.440;2023-06-04T08:30:15;19.90;98.20
41592;DHT22;28026;48.562;14.440;2023-06-04T08:32:46;20.10;98.60
41592;DHT22;28026;48.562;14.440;2023-06-04T08:35:17;19.90;98.30
41592;DHT22;28026;48.562;14.440;2023-06-04T08:37:48;19.90;97.80
41592;DHT22;28026;48.562;14.440;2023-06-04T08:40:19;20.00;98.20
41592;DHT22;28026;48.562;14.440;2023-06-04T08:42:50;20.30;98.20
41592;DHT22;28026;48.562;14.440;2023-06-04T08:45:23;20.80;98.30
41592;DHT22;28026;48.562;14.440;2023-06-04T08:47:54;21.00;98.20
41592;DHT22;28026;48.562;14.440;2023-06-04T08:50:26;20.50;97.90
41592;DHT22;28026;48.562;14.440;2023-06-04T08:52:58;20.30;98.00
41592;DHT22;28026;48.562;14.440;2023-06-04T08:55:29;20.60;99.00
41592;DHT22;28026;48.562;14.440;2023-06-04T08:58:01;21.10;98.40
41592;DHT22;28026;48.562;14.440;2023-06-04T09:00:33;21.20;97.10
41592;DHT22;28026;48.562;14.440;2023-06-04T09:03:04;20.90;96.90
41592;DHT22;28026;48.562;14.440;2023-06-04T09:05:36;21.00;97.80
41592;DHT22;28026;48.562;14.440;2023-06-04T09:08:11;21.10;97.90
41592;DHT22;28026;48.562;14.440;2023-06-04T09:10:44;21.30;98.20
41592;DHT22;28026;48.562;14.440;2023-06-04T09:13:23;21.90;97.40
41592;DHT22;28026;48.562;14.440;2023-06-04T09:16:05;22.10;97.50
41592;DHT22;28026;48.562;14.440;2023-06-04T09:18:36;22.70;95.80
41592;DHT22;28026;48.562;14.440;2023-06-04T09:21:08;22.60;95.80
41592;DHT22;28026;48.562;14.440;2023-06-04T09:23:48;22.10;97.00
41592;DHT22;28026;48.562;14.440;2023-06-04T09:26:19;22.30;96.50
41592;DHT22;28026;48.562;14.440;2023-06-04T09:28:51;22.60;96.90
41592;DHT22;28026;48.562;14.440;2023-06-04T09:31:25;22.80;97.00
41592;DHT22;28026;48.562;14.440;2023-06-04T09:33:57;23.10;96.30
41592;DHT22;28026;48.562;14.440;2023-06-04T09:36:34;23.40;95.80
41592;DHT22;28026;48.562;14.440;2023-06-04T09:39:16;23.20;95.40
41592;DHT22;28026;48.562;14.440;2023-06-04T09:41:58;23.00;95.40
41592;DHT22;28026;48.562;14.440;2023-06-04T09:44:31;23.00;96.50
41592;DHT22;28026;48.562;14.440;2023-06-04T09:47:13;23.30;96.20
41592;DHT22;28026;48.562;14.440;2023-06-04T09:49:49;24.10;95.80
41592;DHT22;28026;48.562;14.440;2023-06-04T09:52:21;24.30;95.70
41592;DHT22;28026;48.562;14.440;2023-06-04T09:55:04;23.90;95.50
41592;DHT22;28026;48.562;14.440;2023-06-04T09:57:52;23.60;96.00
41592;DHT22;28026;48.562;14.440;2023-06-04T10:00:24;23.90;96.00
41592;DHT22;28026;48.562;14.440;2023-06-04T10:02:58;24.40;96.30
41592;DHT22;28026;48.562;14.440;2023-06-04T10:05:33;24.20;95.90
41592;DHT22;28026;48.562;14.440;2023-06-04T10:08:05;24.20;96.50
41592;DHT22;28026;48.562;14.440;2023-06-04T10:10:40;24.10;95.00
41592;DHT22;28026;48.562;14.440;2023-06-04T10:13:19;23.80;95.50
41592;DHT22;28026;48.562;14.440;2023-06-04T10:15:54;23.90;95.80
41592;DHT22;28026;48.562;14.440;2023-06-04T10:18:29;24.20;96.00
41592;DHT22;28026;48.562;14.440;2023-06-04T10:21:01;24.70;95.50
41592;DHT22;28026;48.562;14.440;2023-06-04T10:23:34;24.50;95.70
41592;DHT22;28026;48.562;14.440;2023-06-04T10:26:06;24.80;95.70
41592;DHT22;28026;48.562;14.440;2023-06-04T10:28:41;25.00;95.90
41592;DHT22;28026;48.562;14.440;2023-06-04T10:31:13;24.70;95.00
41592;DHT22;28026;48.562;14.440;2023-06-04T10:33:46;24.70;96.00
41592;DHT22;28026;48.562;14.440;2023-06-04T10:36:18;24.90;95.80
41592;DHT22;28026;48.562;14.440;2023-06-04T10:38:54;24.80;95.40
41592;DHT22;28026;48.562;14.440;2023-06-04T10:41:26;25.00;94.90
41592;DHT22;28026;48.562;14.440;2023-06-04T10:44:01;24.80;95.20
41592;DHT22;28026;48.562;14.440;2023-06-04T10:46:39;24.50;95.00
41592;DHT22;28026;48.562;14.440;2023-06-04T10:49:11;24.30;95.60
41592;DHT22;28026;48.562;14.440;2023-06-04T10:51:42;24.10;95.40
41592;DHT22;28026;48.562;14.440;2023-06-04T10:54:22;24.50;95.60
41592;DHT22;28026;48.562;14.440;2023-06-04T10:56:55;24.10;95.10
41592;DHT22;28026;48.562;14.440;2023-06-04T10:59:26;24.30;96.20
41592;DHT22;28026;48.562;14.440;2023-06-04T11:02:05;24.70;95.70
41592;DHT22;28026;48.562;14.440;2023-06-04T11:04:37;25.40;95.50
41592;DHT22;28026;48.562;14.440;2023-06-04T11:07:08;25.10;94.90
41592;DHT22;28026;48.562;14.440;2023-06-04T11:09:49;24.90;95.10
41592;DHT22;28026;48.562;14.440;2023-06-04T11:12:21;25.20;95.00
41592;DHT22;28026;48.562;14.440;2023-06-04T11:14:55;25.60;94.70
41592;DHT22;28026;48.562;14.440;2023-06-04T11:17:30;25.10;95.20
41592;DHT22;28026;48.562;14.440;2023-06-04T11:20:01;24.70;95.10
41592;DHT22;28026;48.562;14.440;2023-06-04T11:22:37;24.10;95.50
41592;DHT22;28026;48.562;14.440;2023-06-04T11:25:09;23.60;95.80
41592;DHT22;28026;48.562;14.440;2023-06-04T11:27:40;23.60;95.20
41592;DHT22;28026;48.562;14.440;2023-06-04T11:30:11;24.00;95.80
41592;DHT22;28026;48.562;14.440;2023-06-04T11:32:43;24.70;95.40
41592;DHT22;28026;48.562;14.440;2023-06-04T11:35:14;25.00;95.00
41592;DHT22;28026;48.562;14.440;2023-06-04T11:37:55;24.50;94.70
41592;DHT22;28026;48.562;14.440;2023-06-04T11:40:29;24.00;95.30
41592;DHT22;28026;48.562;14.440;2023-06-04T11:43:01;24.00;96.20
41592;DHT22;28026;48.562;14.440;2023-06-04T11:45:33;24.30;95.80
41592;DHT22;28026;48.562;14.440;2023-06-04T11:48:05;25.20;96.00
41592;DHT22;28026;48.562;14.440;2023-06-04T11:50:36;26.00;94.70
41592;DHT22;28026;48.562;14.440;2023-06-04T11:53:07;25.50;94.50
41592;DHT22;28026;48.562;14.440;2023-06-04T11:55:39;25.40;94.60
41592;DHT22;28026;48.562;14.440;2023-06-04T11:58:10;24.90;93.70
41592;DHT22;28026;48.562;14.440;2023-06-04T12:00:42;24.50;94.90
41592;DHT22;28026;48.562;14.440;2023-06-04T12:03:13;24.00;95.30
41592;DHT22;28026;48.562;14.440;2023-06-04T12:05:44;23.60;95.80
41592;DHT22;28026;48.562;14.440;2023-06-04T12:08:15;23.30;95.90
41592;DHT22;28026;48.562;14.440;2023-06-04T12:10:46;23.00;96.60
41592;DHT22;28026;48.562;14.440;2023-06-04T12:13:16;22.90;96.80
41592;DHT22;28026;48.562;14.440;2023-06-04T12:15:52;22.90;96.90
41592;DHT22;28026;48.562;14.440;2023-06-04T12:18:24;22.70;97.10
41592;DHT22;28026;48.562;14.440;2023-06-04T12:20:55;22.70;97.40
41592;DHT22;28026;48.562;14.440;2023-06-04T12:23:26;22.70;97.20
41592;DHT22;28026;48.562;14.440;2023-06-04T12:25:57;22.70;96.80
41592;DHT22;28026;48.562;14.440;2023-06-04T12:28:30;22.80;97.30
41592;DHT22;28026;48.562;14.440;2023-06-04T12:31:01;23.00;97.30
41592;DHT22;28026;48.562;14.440;2023-06-04T12:33:32;23.10;97.10
41592;DHT22;28026;48.562;14.440;2023-06-04T12:36:03;23.00;96.70
41592;DHT22;28026;48.562;14.440;2023-06-04T12:38:35;23.30;97.20
41592;DHT22;28026;48.562;14.440;2023-06-04T12:41:06;23.80;97.80
41592;DHT22;28026;48.562;14.440;2023-06-04T12:43:37;23.90;97.30
41592;DHT22;28026;48.562;14.440;2023-06-04T12:46:08;24.10;96.20
41592;DHT22;28026;48.562;14.440;2023-06-04T12:48:39;24.10;96.00
41592;DHT22;28026;48.562;14.440;2023-06-04T12:51:11;24.30;95.90
41592;DHT22;28026;48.562;14.440;2023-06-04T12:53:42;24.00;96.10
41592;DHT22;28026;48.562;14.440;2023-06-04T12:56:14;24.20;96.20
41592;DHT22;28026;48.562;14.440;2023-06-04T12:58:45;24.90;96.00
41592;DHT22;28026;48.562;14.440;2023-06-04T13:01:16;25.30;95.90
41592;DHT22;28026;48.562;14.440;2023-06-04T13:03:47;25.50;94.40
41592;DHT22;28026;48.562;14.440;2023-06-04T13:06:18;25.10;94.40
41592;DHT22;28026;48.562;14.440;2023-06-04T13:08:49;24.90;95.00
41592;DHT22;28026;48.562;14.440;2023-06-04T13:11:20;24.60;95.30
41592;DHT22;28026;48.562;14.440;2023-06-04T13:13:52;24.40;95.60
41592;DHT22;28026;48.562;14.440;2023-06-04T13:16:22;24.30;95.70
41592;DHT22;28026;48.562;14.440;2023-06-04T13:18:53;24.00;95.70
41592;DHT22;28026;48.562;14.440;2023-06-04T13:21:24;23.70;95.90
41592;DHT22;28026;48.562;14.440;2023-06-04T13:23:55;23.60;96.30
41592;DHT22;28026;48.562;14.440;2023-06-04T13:26:26;23.70;96.50
41592;DHT22;28026;48.562;14.440;2023-06-04T13:28:57;23.40;96.60
41592;DHT22;28026;48.562;14.440;2023-06-04T13:31:28;23.60;96.70
41592;DHT22;28026;48.562;14.440;2023-06-04T13:33:59;23.60;96.40
41592;DHT22;28026;48.562;14.440;2023-06-04T13:36:30;24.00;96.30
41592;DHT22;28026;48.562;14.440;2023-06-04T13:39:01;24.30;95.60
41592;DHT22;28026;48.562;14.440;2023-06-04T13:41:31;24.50;96.60
41592;DHT22;28026;48.562;14.440;2023-06-04T13:44:02;24.90;95.90
41592;DHT22;28026;48.562;14.440;2023-06-04T13:46:33;25.40;95.30
41592;DHT22;28026;48.562;14.440;2023-06-04T13:49:04;24.90;94.90
41592;DHT22;28026;48.562;14.440;2023-06-04T13:51:35;24.30;95.30
41592;DHT22;28026;48.562;14.440;2023-06-04T13:54:06;24.10;95.50
41592;DHT22;28026;48.562;14.440;2023-06-04T13:56:37;24.30;96.30
41592;DHT22;28026;48.562;14.440;2023-06-04T13:59:08;24.10;96.10
41592;DHT22;28026;48.562;14.440;2023-06-04T14:01:40;24.00;96.20
41592;DHT22;28026;48.562;14.440;2023-06-04T14:04:10;23.50;96.50
41592;DHT22;28026;48.562;14.440;2023-06-04T14:06:42;23.30;96.40
41592;DHT22;28026;48.562;14.440;2023-06-04T14:09:12;23.00;97.20
41592;DHT22;28026;48.562;14.440;2023-06-04T14:11:43;23.30;96.90
41592;DHT22;28026;48.562;14.440;2023-06-04T14:14:14;23.00;97.00
41592;DHT22;28026;48.562;14.440;2023-06-04T14:16:45;22.80;96.90
41592;DHT22;28026;48.562;14.440;2023-06-04T14:19:17;22.50;97.30
41592;DHT22;28026;48.562;14.440;2023-06-04T14:21:48;22.70;97.40
41592;DHT22;28026;48.562;14.440;2023-06-04T14:24:19;22.90;97.20
41592;DHT22;28026;48.562;14.440;2023-06-04T14:26:50;22.80;97.50
41592;DHT22;28026;48.562;14.440;2023-06-04T14:29:21;22.50;98.00
41592;DHT22;28026;48.562;14.440;2023-06-04T14:31:52;22.70;97.50
41592;DHT22;28026;48.562;14.440;2023-06-04T14:34:22;22.40;98.20
41592;DHT22;28026;48.562;14.440;2023-06-04T14:36:53;22.70;98.60
41592;DHT22;28026;48.562;14.440;2023-06-04T14:39:25;22.90;97.60
41592;DHT22;28026;48.562;14.440;2023-06-04T14:41:59;22.90;97.50
41592;DHT22;28026;48.562;14.440;2023-06-04T14:44:29;22.80;97.80
41592;DHT22;28026;48.562;14.440;2023-06-04T14:47:00;22.70;97.40
41592;DHT22;28026;48.562;14.440;2023-06-04T14:49:31;22.50;97.90
41592;DHT22;28026;48.562;14.440;2023-06-04T14:52:02;22.30;98.30
41592;DHT22;28026;48.562;14.440;2023-06-04T14:54:34;22.20;97.90
41592;DHT22;28026;48.562;14.440;2023-06-04T14:57:05;22.00;98.10
41592;DHT22;28026;48.562;14.440;2023-06-04T14:59:36;21.90;98.20
41592;DHT22;28026;48.562;14.440;2023-06-04T15:02:07;21.80;98.60
41592;DHT22;28026;48.562;14.440;2023-06-04T15:04:38;21.70;98.60
41592;DHT22;28026;48.562;14.440;2023-06-04T15:07:12;21.80;98.40
41592;DHT22;28026;48.562;14.440;2023-06-04T15:09:43;21.80;98.50
41592;DHT22;28026;48.562;14.440;2023-06-04T15:12:15;21.80;98.60
41592;DHT22;28026;48.562;14.440;2023-06-04T15:14:48;21.80;98.50
41592;DHT22;28026;48.562;14.440;2023-06-04T15:17:19;21.50;99.00
41592;DHT22;28026;48.562;14.440;2023-06-04T15:19:50;21.50;99.30
41592;DHT22;28026;48.562;14.440;2023-06-04T15:22:20;21.60;99.10
41592;DHT22;28026;48.562;14.440;2023-06-04T15:24:51;21.80;99.40
41592;DHT22;28026;48.562;14.440;2023-06-04T15:27:22;21.90;98.80
41592;DHT22;28026;48.562;14.440;2023-06-04T15:29:53;21.60;99.10
41592;DHT22;28026;48.562;14.440;2023-06-04T15:32:24;21.70;99.40
41592;DHT22;28026;48.562;14.440;2023-06-04T15:34:55;21.70;99.10
41592;DHT22;28026;48.562;14.440;2023-06-04T15:37:26;21.60;98.90
41592;DHT22;28026;48.562;14.440;2023-06-04T15:39:56;21.60;99.50
41592;DHT22;28026;48.562;14.440;2023-06-04T15:42:28;21.60;99.50
41592;DHT22;28026;48.562;14.440;2023-06-04T15:44:59;21.50;99.50
41592;DHT22;28026;48.562;14.440;2023-06-04T15:47:30;21.30;99.70
41592;DHT22;28026;48.562;14.440;2023-06-04T15:50:01;21.20;99.70
41592;DHT22;28026;48.562;14.440;2023-06-04T15:52:32;21.10;99.90